Terminal Aerodrome Forecast
Issued by NWS Albany, NY

Home | Current Version | Previous Version | Text Only | Print | Product List | Glossary On
Versions: 1 2 3 4 5 6 7 8 9 10 11 12 13 14 15 16 17 18
000
FTUS41 KALY 030520
TAFALB
TAF
KALB 030520Z 0306/0406 VRB03KT 6SM BR SCT250
     FM030800 00000KT 4SM BR SCT005
     FM031300 34005KT P6SM SCT080 BKN250
     FM032000 36006KT P6SM VCSH BKN070
     FM040300 02008KT P6SM FEW080 BKN200=

USA.gov is the U.S. government's official web portal to all federal, state and local government web resources and services.